Time;durP1;ratioP1;P1;durP2;ratioP2;P2;SDS_P1;SDS_P2;PMS_P1;PMS_P2;Temp;Humidity;BMP_temperature;BMP_pressure;BME280_temperature;BME280_humidity;BME280_pressure;Samples;Min_cycle;Max_cycle;Signal;HPM_P1;HPM_P2
2021/05/21 00:00:27;;;;;;;6.10;3.13;;;12.00;79.90;;;;;;5029802;28;20428;-73
2021/05/21 00:02:53;;;;;;;4.00;2.73;;;12.00;80.20;;;;;;5030008;28;20215;-74
2021/05/21 00:05:19;;;;;;;4.17;2.60;;;12.00;79.90;;;;;;5031550;28;20523;-75
2021/05/21 00:07:45;;;;;;;4.73;2.77;;;12.00;79.70;;;;;;5048420;28;20215;-75
2021/05/21 00:10:11;;;;;;;4.50;3.10;;;11.90;80.00;;;;;;5030562;28;20424;-75
2021/05/21 00:12:36;;;;;;;4.47;2.50;;;12.00;79.90;;;;;;5031858;28;20182;-78
2021/05/21 00:15:04;;;;;;;4.53;2.50;;;12.00;79.90;;;;;;5042210;28;20857;-75
2021/05/21 00:17:30;;;;;;;4.77;3.00;;;12.00;79.90;;;;;;5043649;28;20190;-74
2021/05/21 00:19:56;;;;;;;4.87;2.80;;;12.00;79.60;;;;;;5021216;28;20425;-74
2021/05/21 00:22:22;;;;;;;3.43;2.40;;;12.00;79.60;;;;;;5010411;28;20425;-76
2021/05/21 00:24:47;;;;;;;5.10;2.83;;;11.90;79.90;;;;;;5029683;28;20220;-73
2021/05/21 00:27:13;;;;;;;4.07;3.00;;;11.90;80.20;;;;;;5046070;28;20236;-74
2021/05/21 00:29:39;;;;;;;4.50;3.13;;;11.90;80.20;;;;;;5040956;28;20275;-77
2021/05/21 00:32:05;;;;;;;3.93;2.67;;;11.90;80.30;;;;;;5039807;28;20200;-75
2021/05/21 00:34:31;;;;;;;3.47;2.37;;;11.90;80.20;;;;;;5053184;28;20181;-74
2021/05/21 00:36:56;;;;;;;5.50;2.40;;;11.90;80.30;;;;;;5039955;28;20505;-77
2021/05/21 00:39:22;;;;;;;6.47;2.80;;;11.90;80.30;;;;;;5051960;28;20197;-74
2021/05/21 00:41:48;;;;;;;3.67;2.67;;;11.90;80.20;;;;;;5039725;28;20212;-74
2021/05/21 00:44:14;;;;;;;3.23;2.37;;;12.00;80.30;;;;;;5044023;28;20196;-77
2021/05/21 00:46:40;;;;;;;4.53;3.30;;;12.00;79.60;;;;;;5046368;28;20235;-74
2021/05/21 00:49:06;;;;;;;4.30;2.90;;;12.00;79.60;;;;;;5031696;28;20938;-76
2021/05/21 00:51:32;;;;;;;4.07;2.50;;;12.00;79.20;;;;;;5044911;28;20213;-77
2021/05/21 00:53:59;;;;;;;4.97;2.83;;;12.00;79.00;;;;;;5033082;28;20419;-73
2021/05/21 00:56:26;;;;;;;3.80;2.63;;;12.10;78.90;;;;;;5031535;28;20810;-73
2021/05/21 00:58:51;;;;;;;2.70;2.17;;;12.10;78.60;;;;;;5023135;28;20444;-75
2021/05/21 01:01:18;;;;;;;2.37;2.17;;;12.10;78.40;;;;;;5040775;28;20858;-77
2021/05/21 01:03:44;;;;;;;2.97;2.40;;;12.10;78.40;;;;;;5025643;28;20184;-76
2021/05/21 01:06:13;;;;;;;4.70;2.67;;;12.10;78.70;;;;;;5034722;28;20436;-74
2021/05/21 01:08:39;;;;;;;3.60;2.70;;;12.10;78.70;;;;;;5044166;28;20185;-73
2021/05/21 01:11:07;;;;;;;7.03;2.80;;;12.10;79.00;;;;;;5046069;28;20419;-75
2021/05/21 01:13:33;;;;;;;3.67;2.50;;;12.10;79.20;;;;;;5042003;28;20418;-76
2021/05/21 01:15:59;;;;;;;2.97;2.43;;;12.10;78.90;;;;;;5038992;28;20432;-74
2021/05/21 01:18:25;;;;;;;2.70;2.20;;;12.00;78.60;;;;;;5043067;28;20785;-77
2021/05/21 01:20:51;;;;;;;2.90;2.50;;;12.10;78.60;;;;;;5019556;28;20514;-74
2021/05/21 01:23:17;;;;;;;2.90;2.40;;;12.20;78.30;;;;;;5032799;28;20189;-76
2021/05/21 01:25:43;;;;;;;4.23;2.70;;;12.20;78.30;;;;;;5048674;28;20212;-76
2021/05/21 01:28:11;;;;;;;3.93;2.50;;;12.20;77.80;;;;;;5043068;28;20472;-73
2021/05/21 01:30:36;;;;;;;6.90;2.40;;;12.20;77.60;;;;;;5036023;28;20196;-73
2021/05/21 01:33:13;;;;;;;3.90;2.47;;;12.20;77.70;;;;;;5053646;28;20403;-74
2021/05/21 01:35:39;;;;;;;4.77;2.60;;;12.20;77.30;;;;;;5032371;28;20198;-73
2021/05/21 01:38:05;;;;;;;5.37;2.63;;;12.10;77.70;;;;;;5026936;28;20466;-76
2021/05/21 01:40:32;;;;;;;3.10;2.70;;;11.90;78.40;;;;;;5034171;28;20460;-76
2021/05/21 01:43:00;;;;;;;4.57;2.40;;;11.80;79.00;;;;;;5030649;28;20771;-77
2021/05/21 01:45:25;;;;;;;4.07;2.27;;;11.80;79.20;;;;;;5043969;28;20930;-76
2021/05/21 01:47:51;;;;;;;2.77;1.80;;;11.80;79.30;;;;;;5042863;28;20557;-76
2021/05/21 01:50:17;;;;;;;3.40;2.03;;;11.80;78.90;;;;;;5040573;28;20425;-74
2021/05/21 01:52:44;;;;;;;3.90;2.27;;;11.80;77.70;;;;;;5039004;28;20185;-74
2021/05/21 01:55:11;;;;;;;3.40;2.50;;;11.90;77.30;;;;;;5044480;28;20961;-74
2021/05/21 01:57:40;;;;;;;4.00;2.33;;;12.00;77.00;;;;;;5031711;28;20451;-73
2021/05/21 02:00:09;;;;;;;3.67;2.23;;;12.00;76.10;;;;;;5023999;28;20429;-76
2021/05/21 02:02:36;;;;;;;2.63;1.70;;;12.10;75.90;;;;;;5039409;28;20426;-75
2021/05/21 02:05:03;;;;;;;5.70;2.20;;;12.10;75.50;;;;;;5050603;28;20814;-75
2021/05/21 02:07:29;;;;;;;3.57;1.93;;;12.20;75.90;;;;;;5038934;28;20466;-75
2021/05/21 02:10:00;;;;;;;4.70;1.87;;;12.20;75.70;;;;;;5018230;28;20416;-74
2021/05/21 02:12:28;;;;;;;3.83;1.87;;;12.20;75.50;;;;;;5031425;28;20671;-74
2021/05/21 02:14:57;;;;;;;4.27;2.07;;;12.20;74.60;;;;;;5025102;28;20439;-76
2021/05/21 02:17:22;;;;;;;3.30;1.67;;;12.20;73.60;;;;;;5037330;28;20428;-75
2021/05/21 02:19:48;;;;;;;2.70;1.90;;;12.30;73.00;;;;;;5044435;28;20477;-77
2021/05/21 02:22:18;;;;;;;2.27;1.90;;;12.40;72.70;;;;;;5045498;28;20195;-72
2021/05/21 02:24:44;;;;;;;2.87;1.90;;;12.40;72.30;;;;;;5039937;28;20296;-74
2021/05/21 02:27:09;;;;;;;2.63;2.30;;;12.40;71.80;;;;;;5037120;28;20586;-75
2021/05/21 02:29:35;;;;;;;2.90;2.00;;;12.50;71.70;;;;;;5032072;28;20189;-76
2021/05/21 02:32:01;;;;;;;2.70;1.70;;;12.40;72.10;;;;;;5043909;28;20286;-76
2021/05/21 02:34:27;;;;;;;2.80;1.90;;;12.40;72.10;;;;;;5031721;28;20184;-73
2021/05/21 02:36:52;;;;;;;2.53;1.60;;;12.40;72.10;;;;;;5043978;28;20195;-73
2021/05/21 02:39:18;;;;;;;2.37;1.87;;;12.40;72.10;;;;;;5033710;28;20785;-72
2021/05/21 02:41:44;;;;;;;2.83;1.90;;;12.50;71.60;;;;;;5031566;28;20566;-73
2021/05/21 02:44:10;;;;;;;3.17;1.80;;;12.50;71.80;;;;;;5035742;28;20184;-73
2021/05/21 02:46:36;;;;;;;2.57;1.50;;;12.50;71.60;;;;;;5040040;28;20609;-74
2021/05/21 02:49:01;;;;;;;2.93;1.67;;;12.50;71.40;;;;;;5035546;28;20189;-75
2021/05/21 02:51:27;;;;;;;2.77;1.57;;;12.50;71.10;;;;;;5059537;28;20427;-74
2021/05/21 02:53:53;;;;;;;3.17;1.77;;;12.50;71.10;;;;;;5061114;28;20427;-71
2021/05/21 02:56:19;;;;;;;1.87;1.60;;;12.50;71.30;;;;;;5054432;28;20205;-73
2021/05/21 02:58:44;;;;;;;3.77;1.87;;;12.50;71.60;;;;;;5051684;28;20329;-75
2021/05/21 03:01:10;;;;;;;3.83;1.93;;;12.40;71.80;;;;;;5036699;28;20189;-73
2021/05/21 03:03:36;;;;;;;2.20;1.40;;;12.40;72.30;;;;;;5037971;28;20296;-77
2021/05/21 03:06:02;;;;;;;4.77;1.53;;;12.40;72.30;;;;;;5037076;28;20208;-75
2021/05/21 03:08:28;;;;;;;2.10;1.50;;;12.30;72.40;;;;;;5041678;28;20490;-75
2021/05/21 03:10:53;;;;;;;2.50;1.70;;;12.30;72.70;;;;;;5029981;28;20200;-74
2021/05/21 03:13:19;;;;;;;1.70;1.50;;;12.30;72.40;;;;;;5043388;28;20216;-74
2021/05/21 03:15:46;;;;;;;3.10;1.50;;;12.30;72.60;;;;;;5043748;28;20205;-74
2021/05/21 03:18:13;;;;;;;2.47;1.60;;;12.30;72.30;;;;;;5038314;28;20310;-78
2021/05/21 03:20:40;;;;;;;2.70;1.60;;;12.30;72.60;;;;;;5050031;28;20430;-75
2021/05/21 03:23:06;;;;;;;3.27;1.60;;;12.30;72.30;;;;;;5042749;28;20923;-76
2021/05/21 03:25:32;;;;;;;2.93;1.70;;;12.30;72.40;;;;;;5030016;28;20539;-73
2021/05/21 03:27:58;;;;;;;2.40;2.13;;;12.20;72.30;;;;;;5038963;28;21099;-75
2021/05/21 03:30:24;;;;;;;2.70;1.50;;;12.30;72.30;;;;;;5036858;28;20243;-72
2021/05/21 03:32:50;;;;;;;2.53;1.90;;;12.30;72.30;;;;;;5028818;28;20569;-78
2021/05/21 03:35:15;;;;;;;2.67;1.67;;;12.30;72.40;;;;;;5040793;28;20304;-74
2021/05/21 03:37:41;;;;;;;3.03;1.73;;;12.30;72.70;;;;;;5031685;28;20518;-74
2021/05/21 03:40:07;;;;;;;2.60;1.60;;;12.20;72.70;;;;;;5043632;28;20558;-74
2021/05/21 03:42:33;;;;;;;5.00;1.80;;;12.30;72.70;;;;;;5048675;28;20312;-75
2021/05/21 03:44:59;;;;;;;3.70;2.20;;;12.20;73.30;;;;;;5038806;28;20439;-73
2021/05/21 03:47:25;;;;;;;2.87;1.70;;;12.10;73.90;;;;;;5029963;28;20201;-74
2021/05/21 03:49:51;;;;;;;6.03;2.00;;;12.10;74.60;;;;;;5036759;28;20188;-74
2021/05/21 03:52:17;;;;;;;2.47;2.03;;;12.00;74.50;;;;;;5034552;28;20435;-78
2021/05/21 03:54:43;;;;;;;8.73;2.10;;;11.90;75.20;;;;;;5033116;28;21351;-74
2021/05/21 03:57:09;;;;;;;3.03;2.03;;;11.90;75.20;;;;;;5034976;28;20323;-74
2021/05/21 03:59:35;;;;;;;4.30;1.73;;;11.90;75.50;;;;;;5047013;28;20192;-74
2021/05/21 04:02:01;;;;;;;4.40;2.07;;;11.90;75.70;;;;;;5046731;28;20842;-74
2021/05/21 04:04:26;;;;;;;2.00;1.73;;;11.90;75.80;;;;;;5049551;28;20196;-75
2021/05/21 04:06:52;;;;;;;5.13;1.90;;;11.80;76.20;;;;;;5060904;28;20205;-72
2021/05/21 04:09:18;;;;;;;2.27;1.60;;;11.80;76.20;;;;;;5042946;28;20801;-74
2021/05/21 04:11:44;;;;;;;2.97;1.80;;;11.70;77.10;;;;;;5032648;28;20201;-76
2021/05/21 04:14:09;;;;;;;2.70;1.80;;;11.70;76.20;;;;;;5033853;28;20239;-74
2021/05/21 04:16:35;;;;;;;1.87;1.50;;;11.80;75.50;;;;;;5026310;28;20260;-74
2021/05/21 04:19:01;;;;;;;2.00;1.37;;;11.90;74.90;;;;;;5014937;28;20268;-76
2021/05/21 04:21:27;;;;;;;3.40;2.03;;;11.90;74.50;;;;;;5044982;28;20490;-75
2021/05/21 04:23:55;;;;;;;2.80;1.87;;;12.00;73.90;;;;;;5046733;28;20423;-76
2021/05/21 04:26:21;;;;;;;3.23;1.90;;;12.00;73.30;;;;;;5041334;28;20608;-74
2021/05/21 04:28:50;;;;;;;2.03;1.30;;;12.10;72.90;;;;;;5040367;28;20419;-74
2021/05/21 04:31:17;;;;;;;2.40;1.77;;;12.20;72.70;;;;;;5044994;28;20991;-75
2021/05/21 04:33:42;;;;;;;1.77;1.53;;;12.20;72.70;;;;;;5045388;28;20434;-73
2021/05/21 04:36:08;;;;;;;5.00;1.53;;;12.20;72.90;;;;;;5041911;28;20434;-74
2021/05/21 04:38:35;;;;;;;1.97;1.60;;;12.20;73.20;;;;;;5037749;28;20419;-76
2021/05/21 04:41:01;;;;;;;3.03;2.00;;;12.20;73.20;;;;;;5033285;28;20478;-76
2021/05/21 04:43:27;;;;;;;2.40;1.97;;;12.20;73.50;;;;;;5036174;28;20424;-78
2021/05/21 04:45:53;;;;;;;2.30;1.80;;;12.20;74.00;;;;;;5044347;28;20440;-75
2021/05/21 04:48:20;;;;;;;3.20;1.80;;;12.20;74.50;;;;;;5045182;28;20517;-73
2021/05/21 04:50:47;;;;;;;1.97;1.77;;;12.20;74.60;;;;;;5019685;28;20478;-75
2021/05/21 04:53:13;;;;;;;3.40;2.10;;;12.10;74.80;;;;;;5016362;28;20431;-77
2021/05/21 04:55:40;;;;;;;4.13;1.80;;;12.10;74.90;;;;;;5033232;28;20842;-77
2021/05/21 04:58:06;;;;;;;3.80;2.27;;;12.00;75.40;;;;;;5034763;28;20422;-75
2021/05/21 05:00:32;;;;;;;4.63;2.00;;;12.00;75.70;;;;;;5043412;28;20427;-75
2021/05/21 05:03:06;;;;;;;4.73;2.33;;;12.00;75.80;;;;;;5036610;28;20428;-73
2021/05/21 05:05:32;;;;;;;2.97;2.00;;;12.00;75.90;;;;;;5033630;28;20255;-73
2021/05/21 05:07:58;;;;;;;9.50;2.10;;;12.00;75.90;;;;;;5047304;28;21013;-73
2021/05/21 05:10:24;;;;;;;3.60;2.20;;;12.00;75.80;;;;;;5034758;28;20419;-75
2021/05/21 05:12:51;;;;;;;2.00;1.77;;;12.00;75.70;;;;;;5034679;28;20190;-73
2021/05/21 05:15:18;;;;;;;2.07;1.90;;;12.00;75.70;;;;;;5031597;28;20475;-77
2021/05/21 05:17:43;;;;;;;2.03;1.70;;;12.10;75.50;;;;;;5049648;28;20433;-75
2021/05/21 05:20:10;;;;;;;3.40;2.20;;;12.10;75.40;;;;;;5042261;28;20419;-76
2021/05/21 05:22:36;;;;;;;3.67;2.30;;;12.10;75.40;;;;;;5036698;28;20510;-74
2021/05/21 05:25:02;;;;;;;2.10;1.67;;;12.20;75.10;;;;;;5040664;28;20887;-76
2021/05/21 05:27:29;;;;;;;4.10;2.00;;;12.30;74.90;;;;;;5033356;28;20201;-73
2021/05/21 05:29:55;;;;;;;3.80;1.60;;;12.30;74.60;;;;;;5042415;28;20818;-74
2021/05/21 05:32:21;;;;;;;2.80;1.90;;;12.40;73.90;;;;;;5040109;28;21028;-75
2021/05/21 05:34:46;;;;;;;4.70;1.70;;;12.60;71.80;;;;;;5040519;28;20590;-74
2021/05/21 05:37:12;;;;;;;2.40;1.57;;;12.90;71.00;;;;;;5032604;28;20189;-74
2021/05/21 05:39:38;;;;;;;1.97;1.43;;;13.10;68.90;;;;;;5032618;28;20192;-76
2021/05/21 05:42:04;;;;;;;2.83;1.77;;;13.30;68.50;;;;;;5050432;28;20219;-76
2021/05/21 05:44:30;;;;;;;3.67;1.93;;;13.40;67.90;;;;;;5043398;28;20185;-77
2021/05/21 05:46:56;;;;;;;1.90;1.50;;;13.60;65.30;;;;;;5040333;28;21039;-75
2021/05/21 05:49:22;;;;;;;5.93;1.70;;;13.70;64.70;;;;;;5053028;28;20438;-77
2021/05/21 05:51:47;;;;;;;2.27;1.47;;;13.80;64.50;;;;;;5035836;28;20186;-77
2021/05/21 05:54:13;;;;;;;2.17;1.43;;;13.90;64.80;;;;;;5037350;28;20177;-74
2021/05/21 05:56:39;;;;;;;2.60;1.70;;;14.00;64.40;;;;;;5039136;28;20200;-74
2021/05/21 05:59:05;;;;;;;2.10;1.60;;;14.10;64.40;;;;;;5047817;28;20215;-76
2021/05/21 06:01:30;;;;;;;2.60;1.30;;;14.20;63.50;;;;;;5035864;28;20687;-77
2021/05/21 06:03:56;;;;;;;3.13;1.43;;;14.20;62.80;;;;;;5021360;28;20185;-78
2021/05/21 06:06:22;;;;;;;1.70;1.37;;;14.30;62.50;;;;;;5012865;28;20437;-74
2021/05/21 06:08:48;;;;;;;1.67;1.13;;;14.40;61.00;;;;;;5031546;28;20306;-72
2021/05/21 06:11:13;;;;;;;2.60;1.30;;;14.50;61.20;;;;;;5035627;28;20546;-72
2021/05/21 06:13:39;;;;;;;1.77;1.10;;;14.60;60.60;;;;;;5032445;28;20193;-72
2021/05/21 06:16:05;;;;;;;2.70;1.37;;;14.70;60.70;;;;;;5045713;28;20201;-74
2021/05/21 06:18:30;;;;;;;1.30;1.10;;;14.70;60.00;;;;;;5043495;28;20196;-74
2021/05/21 06:20:56;;;;;;;2.10;1.60;;;14.80;60.00;;;;;;5037403;28;20189;-77
2021/05/21 06:23:22;;;;;;;3.63;1.60;;;14.90;60.00;;;;;;5036439;28;20189;-77
2021/05/21 06:28:23;;;;;;;1.37;1.20;;;14.90;60.00;;;;;;5044809;28;20221;-77
2021/05/21 06:30:50;;;;;;;1.47;1.20;;;14.90;59.60;;;;;;5043458;28;20188;-75
2021/05/21 06:33:16;;;;;;;4.10;1.37;;;14.90;59.70;;;;;;5044006;28;20448;-75
2021/05/21 06:35:42;;;;;;;6.13;1.90;;;14.90;59.60;;;;;;5048049;28;20432;-76
2021/05/21 06:38:08;;;;;;;3.07;1.70;;;14.90;59.70;;;;;;5044628;28;20185;-78
2021/05/21 06:40:33;;;;;;;3.27;1.30;;;15.00;59.30;;;;;;5031437;28;20272;-76
2021/05/21 06:42:59;;;;;;;5.63;2.20;;;15.10;58.90;;;;;;5043760;28;20185;-76
2021/05/21 06:45:25;;;;;;;9.40;2.23;;;15.10;58.50;;;;;;5032375;28;20251;-76
2021/05/21 06:47:50;;;;;;;8.13;1.90;;;15.20;58.40;;;;;;5044527;28;20246;-76
2021/05/21 06:50:16;;;;;;;4.97;1.50;;;15.20;58.40;;;;;;5031983;28;20192;-76
2021/05/21 06:52:42;;;;;;;2.80;1.37;;;15.30;58.70;;;;;;5030557;28;20181;-75
2021/05/21 06:55:08;;;;;;;6.20;1.73;;;15.40;57.70;;;;;;5049339;28;20236;-75
2021/05/21 06:57:35;;;;;;;2.23;1.50;;;15.40;57.40;;;;;;5038957;28;20579;-77
2021/05/21 07:00:03;;;;;;;1.60;1.07;;;15.40;57.40;;;;;;5028195;28;20427;-76
2021/05/21 07:02:30;;;;;;;6.10;1.50;;;15.40;57.20;;;;;;5023500;28;20427;-77
2021/05/21 07:04:56;;;;;;;2.57;1.40;;;15.50;57.40;;;;;;5036037;28;21017;-77
2021/05/21 07:07:24;;;;;;;1.67;1.37;;;15.50;57.40;;;;;;5040101;28;20521;-76
2021/05/21 07:09:50;;;;;;;3.30;1.30;;;15.60;58.00;;;;;;5048812;28;20437;-78
2021/05/21 07:12:17;;;;;;;5.00;1.40;;;15.60;57.60;;;;;;5040005;28;20427;-77
2021/05/21 07:14:42;;;;;;;3.13;1.10;;;15.60;58.10;;;;;;5033384;28;20201;-79
2021/05/21 07:17:08;;;;;;;2.43;1.47;;;15.60;58.00;;;;;;5031680;28;20864;-78
2021/05/21 07:19:34;;;;;;;3.50;1.50;;;15.60;58.10;;;;;;5043763;28;20187;-78
2021/05/21 07:22:02;;;;;;;3.40;1.63;;;15.60;58.00;;;;;;5031649;28;20430;-78
2021/05/21 07:24:28;;;;;;;1.30;1.07;;;15.60;58.00;;;;;;5043086;28;20432;-76
2021/05/21 07:26:53;;;;;;;3.33;1.30;;;15.60;58.10;;;;;;5029780;28;21068;-76
2021/05/21 07:29:19;;;;;;;1.70;1.20;;;15.60;58.40;;;;;;5041804;28;20188;-77
2021/05/21 07:31:45;;;;;;;2.70;1.60;;;15.60;57.80;;;;;;5041428;28;20325;-76
2021/05/21 07:34:10;;;;;;;3.10;1.60;;;15.70;58.40;;;;;;5030585;28;20779;-76
2021/05/21 07:36:36;;;;;;;1.83;1.40;;;15.60;58.70;;;;;;5030707;28;20201;-76
2021/05/21 07:39:04;;;;;;;4.57;1.93;;;15.60;58.80;;;;;;5049105;28;20571;-78
2021/05/21 07:41:30;;;;;;;4.70;1.50;;;15.60;58.50;;;;;;5037502;28;20338;-77
2021/05/21 07:43:57;;;;;;;5.77;1.50;;;15.70;58.50;;;;;;5049195;28;20613;-75
2021/05/21 07:46:24;;;;;;;2.57;1.43;;;15.60;58.70;;;;;;5036073;28;20589;-77
2021/05/21 07:48:50;;;;;;;3.50;1.40;;;15.60;58.40;;;;;;5042156;28;20620;-77
2021/05/21 07:51:20;;;;;;;3.20;1.50;;;15.60;58.80;;;;;;5030368;28;20423;-76
2021/05/21 07:53:46;;;;;;;2.90;1.50;;;15.70;58.50;;;;;;5017685;28;20425;-75
2021/05/21 07:56:12;;;;;;;3.07;1.63;;;15.70;58.50;;;;;;5042955;28;20459;-77
2021/05/21 07:58:38;;;;;;;2.77;1.30;;;15.80;58.70;;;;;;5036394;28;20508;-76
2021/05/21 08:01:04;;;;;;;3.00;1.40;;;15.80;58.20;;;;;;5044849;28;20247;-76
2021/05/21 08:03:30;;;;;;;4.80;1.80;;;15.80;58.40;;;;;;5028507;28;20274;-75
2021/05/21 08:05:59;;;;;;;3.60;1.43;;;15.80;58.20;;;;;;5036682;28;21156;-77
2021/05/21 08:08:25;;;;;;;3.57;2.00;;;15.90;58.40;;;;;;5042282;28;20209;-76
2021/05/21 08:10:52;;;;;;;2.00;1.30;;;16.00;58.10;;;;;;5038326;28;20519;-78
2021/05/21 08:13:19;;;;;;;4.17;1.97;;;16.00;57.60;;;;;;5042137;28;20324;-77
2021/05/21 08:15:45;;;;;;;2.47;1.30;;;16.00;57.70;;;;;;5029230;28;20523;-75
2021/05/21 08:18:11;;;;;;;4.73;1.50;;;16.10;57.60;;;;;;5031258;28;20464;-76
2021/05/21 08:20:38;;;;;;;3.30;1.70;;;16.10;56.80;;;;;;5029890;28;20212;-77
2021/05/21 08:23:04;;;;;;;3.50;1.40;;;16.10;57.00;;;;;;5030971;28;20428;-77
2021/05/21 08:25:30;;;;;;;3.43;1.50;;;16.10;56.90;;;;;;5043337;28;20446;-76
2021/05/21 08:27:56;;;;;;;3.60;1.40;;;16.10;56.60;;;;;;5036514;28;20475;-76
2021/05/21 08:30:24;;;;;;;3.33;1.30;;;16.10;56.80;;;;;;5035997;28;20634;-77
2021/05/21 08:32:50;;;;;;;3.33;1.50;;;16.20;56.80;;;;;;5042791;28;20188;-78
2021/05/21 08:35:20;;;;;;;3.70;1.33;;;16.20;56.60;;;;;;5041681;28;20839;-76
2021/05/21 08:37:47;;;;;;;5.97;1.77;;;16.20;56.90;;;;;;5029795;28;20432;-76
2021/05/21 08:40:20;;;;;;;5.50;1.53;;;16.30;56.50;;;;;;5043044;28;20430;-76
2021/05/21 08:42:50;;;;;;;6.70;2.17;;;16.30;56.40;;;;;;5031604;28;21015;-76
2021/05/21 08:45:19;;;;;;;7.33;1.47;;;16.30;56.60;;;;;;5047793;28;20964;-75
2021/05/21 08:47:45;;;;;;;4.87;1.80;;;16.40;57.00;;;;;;5032214;28;21004;-77
2021/05/21 08:50:12;;;;;;;6.20;1.90;;;16.40;57.20;;;;;;5032267;28;20427;-76
2021/05/21 08:52:38;;;;;;;5.80;1.63;;;16.40;57.30;;;;;;5032386;28;20659;-76
2021/05/21 08:55:07;;;;;;;4.80;1.70;;;16.40;57.20;;;;;;5050252;28;20442;-77
2021/05/21 08:57:32;;;;;;;2.80;1.50;;;16.40;57.30;;;;;;5052908;28;20430;-76
2021/05/21 08:59:58;;;;;;;3.77;1.87;;;16.40;57.60;;;;;;5036962;28;20434;-77
2021/05/21 09:02:29;;;;;;;2.40;1.50;;;16.30;58.00;;;;;;5031734;28;20193;-76
2021/05/21 09:04:58;;;;;;;4.13;2.30;;;16.20;58.50;;;;;;5037098;28;20461;-77
2021/05/21 09:07:27;;;;;;;4.77;1.70;;;16.20;58.10;;;;;;5041047;28;20459;-77
2021/05/21 09:09:55;;;;;;;9.30;1.77;;;16.20;57.70;;;;;;5047089;28;20422;-77
2021/05/21 09:12:23;;;;;;;4.57;1.40;;;16.30;57.20;;;;;;5042153;28;20424;-77
2021/05/21 09:15:08;;;;;;;2.83;1.30;;;16.30;56.20;;;;;;5033423;28;20442;-77
2021/05/21 09:17:34;;;;;;;2.83;1.30;;;16.40;56.10;;;;;;5046493;28;20423;-77
2021/05/21 09:20:03;;;;;;;4.30;1.30;;;16.40;56.00;;;;;;5041004;28;20423;-76
2021/05/21 09:22:28;;;;;;;1.20;1.00;;;16.50;55.80;;;;;;5037588;28;20473;-79
2021/05/21 09:24:54;;;;;;;2.37;1.30;;;16.40;56.10;;;;;;5034234;28;20518;-77
2021/05/21 09:27:21;;;;;;;5.90;1.30;;;16.40;56.80;;;;;;5048615;28;20214;-78
2021/05/21 09:29:51;;;;;;;2.30;1.27;;;16.40;56.80;;;;;;5053419;28;20181;-76
2021/05/21 09:32:20;;;;;;;3.80;1.20;;;16.30;57.40;;;;;;5037853;28;21097;-77
2021/05/21 09:35:02;;;;;;;2.93;1.50;;;16.30;57.70;;;;;;5051064;28;20472;-76
2021/05/21 09:37:28;;;;;;;3.80;1.43;;;16.20;57.80;;;;;;5033143;28;20429;-76
2021/05/21 09:40:09;;;;;;;1.80;1.20;;;16.20;58.00;;;;;;5032108;28;20954;-78
2021/05/21 09:42:54;;;;;;;1.93;1.10;;;16.20;58.10;;;;;;5019756;28;20507;-77
2021/05/21 09:45:23;;;;;;;1.57;1.07;;;16.20;58.20;;;;;;5046980;28;20454;-80
2021/05/21 09:47:57;;;;;;;0.90;0.70;;;16.20;58.10;;;;;;5047306;28;20550;-80
2021/05/21 09:50:44;;;;;;;4.77;1.70;;;16.20;58.10;;;;;;5036959;28;20416;-76
2021/05/21 09:53:17;;;;;;;2.47;1.10;;;16.10;58.70;;;;;;5046095;28;20424;-77
2021/05/21 09:55:58;;;;;;;1.00;0.80;;;16.10;58.80;;;;;;5034112;28;20735;-76
2021/05/21 09:58:40;;;;;;;2.50;1.60;;;16.10;58.70;;;;;;5046660;28;20423;-76
2021/05/21 10:01:16;;;;;;;1.60;1.03;;;16.00;59.20;;;;;;5043981;28;20434;-78
2021/05/21 10:03:44;;;;;;;1.40;1.03;;;16.00;59.50;;;;;;5027755;28;20427;-76
2021/05/21 10:06:11;;;;;;;1.27;0.90;;;16.00;59.20;;;;;;5050134;28;20824;-77
2021/05/21 10:08:38;;;;;;;2.23;1.00;;;15.90;59.30;;;;;;5046777;28;20535;-76
2021/05/21 10:11:05;;;;;;;5.50;1.50;;;15.80;59.60;;;;;;5035170;28;20780;-76
2021/05/21 10:13:32;;;;;;;2.30;0.97;;;15.70;60.00;;;;;;5039195;28;20499;-77
2021/05/21 10:15:58;;;;;;;2.60;1.13;;;15.80;60.00;;;;;;5037448;28;20440;-77
2021/05/21 10:18:26;;;;;;;4.33;1.50;;;15.80;60.30;;;;;;5059852;28;20434;-78
2021/05/21 10:20:54;;;;;;;3.43;1.20;;;15.70;60.60;;;;;;5047613;28;20249;-79
2021/05/21 10:23:24;;;;;;;1.77;1.20;;;15.60;60.70;;;;;;5051639;28;20455;-77
2021/05/21 10:25:53;;;;;;;1.43;1.00;;;15.60;61.30;;;;;;5048189;28;20815;-80
2021/05/21 10:28:24;;;;;;;2.80;1.00;;;15.60;61.00;;;;;;5033911;28;20459;-77
2021/05/21 10:30:50;;;;;;;1.17;0.80;;;15.60;60.90;;;;;;5031994;28;21079;-77
2021/05/21 10:33:20;;;;;;;1.60;1.10;;;15.60;61.30;;;;;;5031512;28;20419;-76
2021/05/21 10:35:47;;;;;;;4.50;1.03;;;15.60;61.70;;;;;;5051531;28;20439;-80
2021/05/21 10:38:23;;;;;;;1.70;1.10;;;15.60;61.70;;;;;;5039249;28;21157;-78
2021/05/21 10:41:15;;;;;;;2.90;1.47;;;15.60;62.20;;;;;;5019370;28;20467;-76
2021/05/21 10:43:51;;;;;;;3.50;1.30;;;15.70;62.50;;;;;;5045649;28;20426;-78
2021/05/21 10:46:19;;;;;;;2.13;1.20;;;15.70;62.30;;;;;;5044524;28;20451;-78
2021/05/21 10:49:00;;;;;;;1.97;1.23;;;15.80;62.50;;;;;;5036356;28;20751;-79
2021/05/21 10:51:28;;;;;;;1.37;1.00;;;15.80;62.50;;;;;;5033720;28;20428;-78
2021/05/21 10:54:33;;;;;;;2.30;1.30;;;15.80;62.80;;;;;;5031705;28;20417;-76
2021/05/21 10:57:17;;;;;;;1.97;1.00;;;15.90;62.80;;;;;;5032677;28;20435;-78
2021/05/21 10:59:52;;;;;;;2.30;1.20;;;16.00;63.10;;;;;;5031936;28;20428;-80
2021/05/21 11:02:21;;;;;;;1.60;1.10;;;15.90;63.10;;;;;;5024362;28;20465;-77
2021/05/21 11:04:47;;;;;;;3.67;1.23;;;16.00;63.20;;;;;;5035390;28;20431;-76
2021/05/21 11:07:36;;;;;;;1.57;1.17;;;16.00;63.50;;;;;;5041281;28;20456;-77
2021/05/21 11:10:03;;;;;;;2.00;1.40;;;16.20;63.40;;;;;;5022822;28;20264;-78
2021/05/21 11:12:51;;;;;;;1.30;0.97;;;16.40;62.20;;;;;;5045898;28;20421;-77
2021/05/21 11:15:35;;;;;;;1.97;1.30;;;16.50;62.00;;;;;;5044433;28;20877;-77
2021/05/21 11:18:26;;;;;;;3.50;1.03;;;16.40;62.50;;;;;;5031823;28;20428;-76
2021/05/21 11:21:09;;;;;;;2.37;1.33;;;16.40;62.30;;;;;;5047229;28;20414;-77
2021/05/21 11:23:46;;;;;;;3.43;1.30;;;16.50;62.20;;;;;;5045196;28;20780;-77
2021/05/21 11:26:17;;;;;;;1.10;1.03;;;16.40;61.70;;;;;;5019701;28;20513;-79
2021/05/21 11:28:55;;;;;;;1.33;1.17;;;16.20;61.90;;;;;;5031209;28;20475;-77
2021/05/21 11:31:24;;;;;;;3.93;1.43;;;16.10;61.70;;;;;;5041707;28;20469;-76
2021/05/21 11:33:52;;;;;;;1.80;0.97;;;16.20;62.20;;;;;;5049159;28;20785;-76
2021/05/21 11:36:24;;;;;;;1.77;1.00;;;16.30;62.50;;;;;;5048875;28;20462;-77
2021/05/21 11:38:51;;;;;;;2.27;1.43;;;16.50;61.30;;;;;;5031360;28;21059;-77
2021/05/21 11:41:18;;;;;;;1.00;0.90;;;16.60;61.00;;;;;;5030896;28;20421;-78
2021/05/21 11:43:47;;;;;;;2.43;1.20;;;16.70;61.50;;;;;;5048221;28;21185;-78
2021/05/21 11:46:18;;;;;;;4.60;1.30;;;16.70;61.50;;;;;;5052232;28;20505;-77
2021/05/21 11:48:46;;;;;;;1.50;0.87;;;16.60;61.60;;;;;;5050317;28;20519;-77
2021/05/21 11:51:16;;;;;;;2.30;1.00;;;16.70;61.60;;;;;;5035153;28;20418;-78
2021/05/21 11:53:52;;;;;;;1.33;0.97;;;16.50;61.20;;;;;;5038193;28;20432;-78
2021/05/21 11:56:34;;;;;;;1.10;0.80;;;16.50;61.60;;;;;;5038441;28;20452;-77
2021/05/21 11:59:03;;;;;;;2.83;1.13;;;16.60;60.90;;;;;;5042021;28;20518;-76
2021/05/21 12:01:30;;;;;;;1.53;0.97;;;16.50;59.90;;;;;;5041006;28;20948;-77
2021/05/21 12:03:57;;;;;;;2.23;1.07;;;16.40;59.70;;;;;;5028694;28;20834;-77
2021/05/21 12:06:23;;;;;;;2.30;1.20;;;16.30;59.50;;;;;;5047537;28;20807;-78
2021/05/21 12:08:51;;;;;;;2.20;1.10;;;16.20;59.30;;;;;;5040548;28;20475;-79
2021/05/21 12:11:17;;;;;;;1.63;0.93;;;16.10;59.20;;;;;;5034352;28;20186;-77
2021/05/21 12:13:43;;;;;;;1.90;1.10;;;16.20;59.20;;;;;;5040402;28;20420;-78
2021/05/21 12:16:19;;;;;;;1.83;1.23;;;16.30;58.70;;;;;;5045274;28;20555;-79
2021/05/21 12:18:48;;;;;;;1.17;1.00;;;16.30;58.50;;;;;;5042198;28;20450;-76
2021/05/21 12:21:22;;;;;;;2.67;1.20;;;16.50;58.80;;;;;;5045289;28;20494;-79
2021/05/21 12:23:50;;;;;;;1.83;1.20;;;16.40;58.10;;;;;;5046870;28;20429;-78
2021/05/21 12:26:19;;;;;;;1.97;1.27;;;16.40;58.10;;;;;;5034891;28;20517;-77
2021/05/21 12:28:45;;;;;;;2.60;1.20;;;16.50;57.60;;;;;;5034804;28;20468;-76
2021/05/21 12:31:11;;;;;;;3.73;1.83;;;16.50;57.60;;;;;;5045516;28;20583;-77
2021/05/21 12:33:41;;;;;;;1.40;1.10;;;16.20;57.60;;;;;;5047237;28;20435;-75
2021/05/21 12:36:14;;;;;;;4.17;1.00;;;16.20;57.80;;;;;;5046279;28;20957;-78
2021/05/21 12:38:47;;;;;;;1.20;0.93;;;16.20;57.80;;;;;;5048555;28;20422;-77
2021/05/21 12:41:13;;;;;;;2.60;1.30;;;16.30;57.60;;;;;;5042201;28;20415;-76
2021/05/21 12:43:39;;;;;;;2.70;1.10;;;16.40;56.60;;;;;;5044406;28;20808;-76
2021/05/21 12:46:09;;;;;;;1.60;0.93;;;16.40;56.60;;;;;;5031790;28;20443;-75
2021/05/21 12:48:38;;;;;;;3.93;1.20;;;16.30;56.60;;;;;;5031202;28;20217;-78
2021/05/21 12:51:22;;;;;;;2.10;0.90;;;16.30;56.80;;;;;;5045815;28;20424;-77
2021/05/21 12:53:50;;;;;;;6.40;1.20;;;16.30;56.80;;;;;;5051423;28;20419;-75